createdAt,value
2019-01-11T00:00:14.455Z,22.9
2019-01-11T00:01:05.099Z,22.9
2019-01-11T00:01:54.604Z,22.8
2019-01-11T00:02:44.896Z,22.9
2019-01-11T00:03:34.691Z,22.8
2019-01-11T00:04:24.746Z,22.8
2019-01-11T00:05:15.391Z,22.8
2019-01-11T00:06:04.011Z,22.8
2019-01-11T00:06:54.343Z,22.8
2019-01-11T00:07:44.953Z,22.8
2019-01-11T00:08:34.793Z,22.8
2019-01-11T00:09:24.780Z,22.8
2019-01-11T00:10:14.860Z,22.7
2019-01-11T00:11:05.531Z,22.7
2019-01-11T00:11:55.238Z,22.7
2019-01-11T00:12:45.296Z,22.6
2019-01-11T00:13:35.975Z,22.6
2019-01-11T00:14:26.255Z,22.6
2019-01-11T00:15:15.475Z,22.6
2019-01-11T00:16:05.830Z,22.6
2019-01-11T00:34:28.464Z,22.3
2019-01-11T00:35:19.766Z,22.3
2019-01-11T00:36:09.874Z,22.3
2019-01-11T00:36:59.404Z,22.3
2019-01-11T00:37:48.862Z,22.3
2019-01-11T00:38:38.886Z,22.3
2019-01-11T00:39:28.771Z,22.3
2019-01-11T00:40:19.297Z,22.3
2019-01-11T00:41:09.406Z,22.3
2019-01-11T00:41:58.689Z,22.2
2019-01-11T00:42:49.282Z,22.2
2019-01-11T00:43:39.016Z,22.2
2019-01-11T00:44:29.092Z,22.2
2019-01-11T00:45:19.399Z,22.2
2019-01-11T00:46:08.931Z,22.2
2019-01-11T00:46:58.898Z,22.1
2019-01-11T00:47:48.763Z,22.1
2019-01-11T00:48:39.083Z,22.1
2019-01-11T00:49:30.306Z,22.1
2019-01-11T00:50:20.273Z,22.1
2019-01-11T00:51:10.023Z,22.1
2019-01-11T00:52:00.063Z,22.1
2019-01-11T00:52:49.581Z,22.1
2019-01-11T00:53:40.220Z,22.1
2019-01-11T00:54:29.495Z,22.1
2019-01-11T00:55:20.919Z,22.1
2019-01-11T00:56:10.661Z,22.1
2019-01-11T00:57:00.197Z,22.1
2019-01-11T00:57:50.276Z,22.1
2019-01-11T00:58:40.805Z,22
2019-01-11T00:59:31.125Z,22
2019-01-11T01:00:20.100Z,22
2019-01-11T01:01:10.155Z,22
2019-01-11T01:02:00.202Z,22
2019-01-11T01:02:50.889Z,21.9
2019-01-11T01:03:40.985Z,21.9
2019-01-11T01:04:30.632Z,21.9
2019-01-11T01:05:19.970Z,21.9
2019-01-11T01:06:10.620Z,21.9
2019-01-11T01:07:01.400Z,21.9
2019-01-11T01:07:50.994Z,21.9
2019-01-11T01:08:41.010Z,21.9
2019-01-11T01:09:30.212Z,21.9
2019-01-11T01:10:21.426Z,21.9
2019-01-11T01:11:10.348Z,21.9
2019-01-11T01:12:01.331Z,21.9
2019-01-11T01:12:50.737Z,21.9
2019-01-11T01:13:41.049Z,21.8
2019-01-11T01:14:31.184Z,21.8
2019-01-11T01:15:21.849Z,21.8
2019-01-11T01:16:11.239Z,21.8
2019-01-11T01:17:01.553Z,21.8
2019-01-11T01:17:52.099Z,21.8
2019-01-11T01:18:42.166Z,21.8
2019-01-11T01:19:31.659Z,21.8
2019-01-11T01:20:21.804Z,21.8
2019-01-11T01:21:12.356Z,21.8
2019-01-11T01:22:02.767Z,21.8
2019-01-11T01:22:51.926Z,21.8
2019-01-11T01:23:42.239Z,21.7
2019-01-11T01:24:32.021Z,21.7
2019-01-11T01:25:21.882Z,21.7
2019-01-11T01:26:11.912Z,21.7
2019-01-11T01:27:01.416Z,21.7
2019-01-11T01:27:52.044Z,21.7
2019-01-11T01:28:41.733Z,21.7
2019-01-11T01:29:31.505Z,21.6
2019-01-11T01:30:22.083Z,21.7
2019-01-11T01:31:10.983Z,21.6
2019-01-11T01:32:02.098Z,21.6
2019-01-11T01:32:52.927Z,21.6
2019-01-11T01:33:42.698Z,21.6
2019-01-11T01:34:32.190Z,21.6
2019-01-11T01:35:22.220Z,21.6
2019-01-11T01:36:12.785Z,21.6
2019-01-11T01:37:03.150Z,21.5
2019-01-11T01:37:53.440Z,21.5
2019-01-11T01:38:43.235Z,21.5
2019-01-11T01:39:33.310Z,21.5
2019-01-11T01:40:23.907Z,21.4
2019-01-11T01:41:12.347Z,22.6
2019-01-11T01:42:04.012Z,27.3
2019-01-11T01:42:54.332Z,30.6
2019-01-11T01:43:44.113Z,32.8
2019-01-11T01:44:33.685Z,34.3
2019-01-11T01:45:23.462Z,35.4
2019-01-11T01:46:14.302Z,36.2
2019-01-11T01:47:03.835Z,37.1
2019-01-11T01:47:53.113Z,37.5
2019-01-11T01:48:45.327Z,36.9
2019-01-11T01:49:34.184Z,36.4
2019-01-11T01:50:24.082Z,36.2
2019-01-11T01:51:14.084Z,35.9
2019-01-11T01:52:04.982Z,35.7
2019-01-11T01:52:53.977Z,35.4
2019-01-11T01:53:43.977Z,35.1
2019-01-11T01:54:34.649Z,34.4
2019-01-11T01:55:24.382Z,33.4
2019-01-11T01:56:13.618Z,32.1
2019-01-11T01:57:03.929Z,30.8
2019-01-11T01:57:54.549Z,29.7
2019-01-11T01:58:44.846Z,28.7
2019-01-11T01:59:34.104Z,27.9
2019-01-11T02:00:23.689Z,27.3
2019-01-11T02:01:14.008Z,26.8
2019-01-11T02:02:04.671Z,26.3
2019-01-11T02:02:54.368Z,26
2019-01-11T02:03:45.021Z,29.9
2019-01-11T02:04:34.831Z,33.4
2019-01-11T02:05:24.311Z,35.4
2019-01-11T02:06:15.421Z,36.6
2019-01-11T02:07:04.956Z,37.5
2019-01-11T02:07:55.346Z,38.3
2019-01-11T02:08:45.088Z,38.8
2019-01-11T02:09:34.020Z,39.1
2019-01-11T02:10:24.915Z,38.5
2019-01-11T02:11:15.510Z,37.6
2019-01-11T02:12:04.994Z,36.9
2019-01-11T02:12:56.138Z,36.5
2019-01-11T02:13:45.342Z,36.2
2019-01-11T02:14:35.391Z,35.9
2019-01-11T02:15:25.985Z,35.6
2019-01-11T02:16:15.000Z,34.9
2019-01-11T02:17:05.118Z,34.1
2019-01-11T02:17:55.887Z,32.9
2019-01-11T02:18:46.502Z,31.6
2019-01-11T02:19:40.621Z,30.4
2019-01-11T02:20:25.550Z,29.4
2019-01-11T02:21:15.041Z,28.7
2019-01-11T02:22:06.255Z,28
2019-01-11T02:22:56.248Z,27.4
2019-01-11T02:23:46.284Z,27
2019-01-11T02:24:36.635Z,30.6
2019-01-11T02:25:26.124Z,34
2019-01-11T02:26:16.510Z,35.9
2019-01-11T02:27:06.359Z,37.1
2019-01-11T02:27:55.926Z,38.1
2019-01-11T02:28:46.064Z,38.8
2019-01-11T02:29:35.638Z,39.2
2019-01-11T02:30:26.680Z,39.3
2019-01-11T02:31:16.605Z,38.1
2019-01-11T02:32:07.472Z,37.4
2019-01-11T02:33:00.327Z,36.8
2019-01-11T02:33:46.742Z,36.3
2019-01-11T02:34:36.526Z,36.1
2019-01-11T02:35:27.226Z,35.8
2019-01-11T02:36:15.742Z,35.3
2019-01-11T02:37:08.147Z,34.5
2019-01-11T02:37:57.035Z,33.3
2019-01-11T02:38:47.349Z,32.1
2019-01-11T02:39:37.431Z,30.9
2019-01-11T02:40:28.131Z,29.9
2019-01-11T02:41:17.531Z,29.1
2019-01-11T02:42:07.626Z,28.4
2019-01-11T02:43:47.401Z,27.4
2019-01-11T02:44:38.762Z,31.7
2019-01-11T02:45:27.773Z,34.8
2019-01-11T02:46:16.469Z,36.4
2019-01-11T02:47:08.179Z,37.6
2019-01-11T02:47:58.258Z,38.3
2019-01-11T02:48:48.278Z,37.3
2019-01-11T02:49:44.990Z,36.5
2019-01-11T02:50:28.763Z,36
2019-01-11T02:51:18.006Z,35.8
2019-01-11T02:52:09.080Z,35.6
2019-01-11T02:52:58.373Z,35
2019-01-11T02:53:48.405Z,36.9
2019-01-11T02:54:39.000Z,38.2
2019-01-11T02:55:29.343Z,38.8
2019-01-11T02:56:18.542Z,37.8
2019-01-11T02:57:08.357Z,37.1
2019-01-11T02:57:58.875Z,36.4
2019-01-11T02:58:48.715Z,36.1
2019-01-11T02:59:38.522Z,35.3
2019-01-11T03:00:28.588Z,33.8
2019-01-11T03:01:18.362Z,32.3
2019-01-11T03:02:09.032Z,30.9
2019-01-11T03:02:58.977Z,29.8
2019-01-11T03:03:48.222Z,28.9
2019-01-11T03:04:38.831Z,28.3
2019-01-11T03:05:30.420Z,27.7
2019-01-11T03:06:18.911Z,27.3
2019-01-11T03:07:09.533Z,26.9
2019-01-11T03:07:58.757Z,26.7
2019-01-11T03:08:49.632Z,28.9
2019-01-11T03:09:39.464Z,33.1
2019-01-11T03:10:28.079Z,35.3
2019-01-11T03:11:19.812Z,36.8
2019-01-11T03:12:09.634Z,37.3
2019-01-11T03:12:59.701Z,36.4
2019-01-11T03:13:49.481Z,35.9
2019-01-11T03:14:40.067Z,35.6
2019-01-11T03:15:29.079Z,35.4
2019-01-11T03:16:20.376Z,34.9
2019-01-11T03:17:09.942Z,33.7
2019-01-11T03:17:59.709Z,34.7
2019-01-11T03:18:49.811Z,36.8
2019-01-11T03:19:39.592Z,37.9
2019-01-11T03:20:30.506Z,38.3
2019-01-11T03:21:20.555Z,37.4
2019-01-11T03:22:09.998Z,36.7
2019-01-11T03:22:59.764Z,36.2
2019-01-11T03:23:50.712Z,35.8
2019-01-11T03:24:40.480Z,34.9
2019-01-11T03:25:29.979Z,33.4
2019-01-11T03:26:20.533Z,31.9
2019-01-11T03:27:10.333Z,30.6
2019-01-11T03:28:01.297Z,29.5
2019-01-11T03:28:50.755Z,28.8
2019-01-11T03:29:41.396Z,28.1
2019-01-11T03:30:30.792Z,27.6
2019-01-11T03:31:21.574Z,28
2019-01-11T03:32:11.375Z,32.4
2019-01-11T03:33:00.489Z,35.1
2019-01-11T03:33:50.231Z,36.5
2019-01-11T03:34:41.722Z,36.6
2019-01-11T03:35:31.303Z,35.9
2019-01-11T03:36:21.541Z,35.6
2019-01-11T03:37:11.585Z,35.4
2019-01-11T03:38:01.064Z,34.9
2019-01-11T03:38:51.450Z,33.7
2019-01-11T03:39:40.972Z,32.1
2019-01-11T03:40:31.885Z,30.8
2019-01-11T03:41:20.753Z,29.7
2019-01-11T03:42:12.241Z,28.8
2019-01-11T03:43:01.998Z,28.2
2019-01-11T03:43:52.044Z,31.3
2019-01-11T03:44:41.556Z,34.5
2019-01-11T03:45:33.228Z,36.3
2019-01-11T03:46:21.931Z,37.4
2019-01-11T03:47:11.754Z,36.6
2019-01-11T03:48:02.916Z,36.1
2019-01-11T03:48:52.453Z,35.7
2019-01-11T03:49:42.426Z,35.5
2019-01-11T03:50:31.952Z,34.8
2019-01-11T03:51:22.550Z,33.6
2019-01-11T03:52:11.484Z,32.1
2019-01-11T03:53:01.865Z,30.7
2019-01-11T03:53:52.684Z,29.9
2019-01-11T03:54:40.596Z,33.6
2019-01-11T03:55:31.976Z,35.9
2019-01-11T03:56:23.245Z,37.3
2019-01-11T03:57:13.022Z,37.5
2019-01-11T03:58:02.446Z,36.8
2019-01-11T03:58:52.177Z,36.2
2019-01-11T03:59:42.876Z,35.9
2019-01-11T04:00:33.149Z,35.5
2019-01-11T04:01:22.126Z,34.6
2019-01-11T04:02:11.893Z,33.1
2019-01-11T04:03:02.516Z,31.6
2019-01-11T04:03:52.846Z,30.4
2019-01-11T04:04:41.771Z,29.4
2019-01-11T04:05:33.228Z,28.7
2019-01-11T04:06:23.926Z,31.3
2019-01-11T04:07:13.053Z,34.6
2019-01-11T04:08:03.925Z,36.3
2019-01-11T04:08:53.290Z,37.4
2019-01-11T04:09:42.963Z,36.9
2019-01-11T04:10:32.496Z,36.2
2019-01-11T04:11:23.976Z,35.8
2019-01-11T04:12:12.857Z,35.6
2019-01-11T04:13:04.000Z,35
2019-01-11T04:13:53.496Z,33.6
2019-01-11T04:14:43.892Z,32.1
2019-01-11T04:15:34.204Z,30.8
2019-01-11T04:16:23.317Z,29.8
2019-01-11T04:17:14.563Z,29.9
2019-01-11T04:18:04.042Z,33.9
2019-01-11T04:18:54.657Z,36.1
2019-01-11T04:19:44.160Z,37.3
2019-01-11T04:20:34.514Z,37.4
2019-01-11T04:21:24.015Z,36.6
2019-01-11T04:22:13.838Z,36.1
2019-01-11T04:23:04.394Z,35.8
2019-01-11T04:23:54.025Z,35.5
2019-01-11T04:24:45.424Z,34.6
2019-01-11T04:25:34.687Z,33.1
2019-01-11T04:26:24.399Z,31.7
2019-01-11T04:27:14.705Z,30.5
2019-01-11T04:28:05.322Z,29.6
2019-01-11T04:28:54.627Z,32.1
2019-01-11T04:29:44.055Z,35.1
2019-01-11T04:30:34.216Z,36.8
2019-01-11T04:31:24.457Z,37.6
2019-01-11T04:32:14.280Z,36.8
2019-01-11T04:33:05.388Z,36.3
2019-01-11T04:33:55.694Z,35.8
2019-01-11T04:34:44.954Z,35.6
2019-01-11T04:35:35.562Z,34.9
2019-01-11T04:36:25.589Z,33.4
2019-01-11T04:37:15.367Z,31.9
2019-01-11T04:38:05.242Z,30.7
2019-01-11T04:38:54.731Z,29.7
2019-01-11T04:39:45.684Z,28.9
2019-01-11T04:40:41.269Z,30.8
2019-01-11T04:41:24.889Z,34.7
2019-01-11T04:42:15.786Z,36.3
2019-01-11T04:43:06.096Z,37.5
2019-01-11T04:43:55.086Z,37
2019-01-11T04:44:46.200Z,36.4
2019-01-11T04:45:36.356Z,36
2019-01-11T04:46:26.038Z,35.7
2019-01-11T05:04:02.505Z,35.3
2019-01-11T05:05:01.368Z,37.5
2019-01-11T05:05:29.900Z,37.1
2019-01-11T05:08:01.230Z,35.8
2019-01-11T05:08:34.717Z,35.6
2019-01-11T05:09:59.471Z,33.4
2019-01-11T05:10:37.798Z,32.2
2019-01-11T05:12:11.387Z,31.6
2019-01-11T09:18:14.016Z,36.3
2019-01-11T09:19:03.888Z,35.9
2019-01-11T09:19:54.713Z,35.6
2019-01-11T09:20:45.293Z,34.9
2019-01-11T09:21:42.263Z,33.5
2019-01-11T09:22:25.375Z,31.9
2019-01-11T09:23:13.555Z,30.9
2019-01-11T09:24:05.003Z,30.4
2019-01-11T09:24:54.768Z,34.3
2019-01-11T09:25:44.275Z,36.7
2019-01-11T09:26:34.563Z,38.1
2019-01-11T09:27:23.793Z,38.6
2019-01-11T09:28:15.808Z,37.6
2019-01-11T09:29:05.365Z,36.9
2019-01-11T09:29:55.050Z,36.4
2019-01-11T09:30:45.387Z,36.1
2019-01-11T09:31:35.167Z,35.6
2019-01-11T09:32:25.534Z,34.7
2019-01-11T09:33:22.136Z,33.3
2019-01-11T09:34:06.165Z,31.8
2019-01-11T09:34:55.697Z,33.3
2019-01-11T09:35:45.792Z,36.2
2019-01-11T09:36:34.785Z,37.8
2019-01-11T09:37:25.557Z,38.6
2019-01-11T09:38:16.395Z,37.7
2019-01-11T09:39:05.482Z,36.9
2019-01-11T09:39:56.353Z,36.4
2019-01-11T09:40:45.849Z,36.1
2019-01-11T09:41:36.137Z,35.6
2019-01-11T09:42:25.685Z,34.4
2019-01-11T09:43:16.003Z,33.1
2019-01-11T09:44:05.777Z,31.7
2019-01-11T09:44:56.131Z,30.6
2019-01-11T09:45:46.129Z,29.8
2019-01-11T09:46:36.466Z,32.9
2019-01-11T09:47:27.059Z,35.8
2019-01-11T09:48:16.357Z,37.4
2019-01-11T09:49:06.087Z,38.3
2019-01-11T09:49:56.611Z,37.4
2019-01-11T09:50:46.262Z,36.8
2019-01-11T09:51:36.234Z,36.3
2019-01-11T09:52:26.294Z,36
2019-01-11T09:53:16.387Z,35.6
2019-01-11T09:54:06.994Z,34.6
2019-01-11T09:54:57.320Z,33.3
2019-01-11T09:55:45.971Z,32.9
2019-01-11T09:56:36.904Z,36
2019-01-11T09:57:27.193Z,37.7
2019-01-11T09:58:17.574Z,38.6
2019-01-11T09:59:06.944Z,38.5
2019-01-11T09:59:57.339Z,37.6
2019-01-11T10:00:48.346Z,36.9
2019-01-11T10:01:37.241Z,36.4
2019-01-11T10:02:27.672Z,36.1
2019-01-11T10:03:18.224Z,35.4
2019-01-11T10:04:07.759Z,34.2
2019-01-11T10:04:57.280Z,32.8
2019-01-11T10:05:47.748Z,31.5
2019-01-11T10:06:37.338Z,30.5
2019-01-11T10:07:27.328Z,29.7
2019-01-11T10:08:17.675Z,33.4
2019-01-11T10:09:07.716Z,36.1
2019-01-11T10:09:58.043Z,37.5
2019-01-11T10:10:47.275Z,38.3
2019-01-11T10:11:37.333Z,37.3
2019-01-11T10:12:27.685Z,36.8
2019-01-11T10:13:17.988Z,36.3
2019-01-11T10:14:07.807Z,35.9
2019-01-11T10:14:58.393Z,35.4
2019-01-11T10:15:48.720Z,34.3
2019-01-11T10:16:38.225Z,32.9
2019-01-11T10:17:28.290Z,31.9
2019-01-11T10:18:18.602Z,35.2
2019-01-11T10:19:08.395Z,37.2
2019-01-11T10:19:57.924Z,38.3
2019-01-11T10:20:48.512Z,38.3
2019-01-11T10:21:37.714Z,37.3
2019-01-11T10:22:28.614Z,36.7
2019-01-11T10:23:18.398Z,36.3
2019-01-11T10:24:08.794Z,35.9
2019-01-11T10:24:58.897Z,35.1
2019-01-11T10:25:48.324Z,33.6
2019-01-11T10:26:38.645Z,32.3
2019-01-11T10:27:28.724Z,31.1
2019-01-11T10:28:19.548Z,30.1
2019-01-11T10:29:08.504Z,30.4
2019-01-11T10:29:58.005Z,34.3
2019-01-11T10:30:49.729Z,36.4
2019-01-11T10:31:39.216Z,37.8
2019-01-11T10:32:29.016Z,38
2019-01-11T10:33:19.608Z,37.1
2019-01-11T10:34:09.941Z,36.6
2019-01-11T10:34:59.721Z,36.2
2019-01-11T10:35:49.523Z,35.9
2019-01-11T10:36:39.546Z,35.2
2019-01-11T10:37:29.346Z,33.9
2019-01-11T10:38:19.691Z,32.6
2019-01-11T10:39:10.016Z,31.3
2019-01-11T10:40:00.336Z,31.6
2019-01-11T10:40:50.143Z,35.1
2019-01-11T10:41:40.453Z,37
2019-01-11T10:42:30.278Z,38.2
2019-01-11T10:43:19.451Z,37.9
2019-01-11T10:44:10.361Z,37.1
2019-01-11T10:45:00.731Z,36.6
2019-01-11T10:45:50.211Z,36.2
2019-01-11T10:46:40.233Z,35.8
2019-01-11T10:47:30.571Z,34.8
2019-01-11T10:48:20.083Z,33.5
2019-01-11T10:49:10.667Z,32.1
2019-01-11T10:50:00.457Z,31
2019-01-11T10:50:50.595Z,30.1
2019-01-11T10:51:41.140Z,32.8
2019-01-11T10:52:30.893Z,35.9
2019-01-11T10:53:19.380Z,37.4
2019-01-11T10:54:09.705Z,38.4
2019-01-11T10:54:59.485Z,37.8
2019-01-11T10:55:50.569Z,37
2019-01-11T10:56:41.217Z,36.5
2019-01-11T10:57:31.427Z,36.2
2019-01-11T10:58:20.752Z,35.9
2019-01-11T10:59:11.669Z,35
2019-01-11T11:00:01.668Z,33.6
2019-01-11T11:00:51.386Z,33.8
2019-01-11T11:01:41.492Z,36.6
2019-01-11T11:02:31.277Z,38.1
2019-01-11T11:03:21.371Z,38.9
2019-01-11T11:04:11.140Z,38
2019-01-11T11:05:00.337Z,37.3
2019-01-11T11:05:51.572Z,36.8
2019-01-11T11:06:41.642Z,36.3
2019-01-11T11:07:31.396Z,35.9
2019-01-11T11:08:22.519Z,34.8
2019-01-11T11:09:12.052Z,33.3
2019-01-11T11:10:01.883Z,31.9
2019-01-11T11:10:51.294Z,30.8
2019-01-11T11:11:42.211Z,30
2019-01-11T11:12:32.516Z,29.3
2019-01-11T11:13:22.299Z,32
2019-01-11T11:14:12.144Z,35.2
2019-01-11T11:15:02.178Z,37
2019-01-11T11:15:52.463Z,38.2
2019-01-11T11:16:42.293Z,37.7
2019-01-11T11:17:31.798Z,36.9
2019-01-11T11:18:22.638Z,36.5
2019-01-11T11:19:12.388Z,36.1
2019-01-11T11:20:01.845Z,35.8
2019-01-11T11:20:52.100Z,35
2019-01-11T11:21:42.391Z,33.7
2019-01-11T11:22:31.616Z,32.3
2019-01-11T11:23:22.250Z,33.4
2019-01-11T11:24:11.438Z,36.2
2019-01-11T11:25:02.906Z,37.7
2019-01-11T11:25:52.388Z,38.6
2019-01-11T11:26:42.223Z,37.6
2019-01-11T11:27:31.640Z,37
2019-01-11T11:28:22.548Z,36.5
2019-01-11T11:29:14.378Z,36.1
2019-01-11T11:30:02.462Z,35.6
2019-01-11T11:30:58.615Z,34.4
2019-01-11T11:31:43.345Z,32.8
2019-01-11T11:32:33.170Z,31.7
2019-01-11T11:33:22.372Z,30.6
2019-01-11T11:34:13.215Z,29.8
2019-01-11T11:35:02.731Z,29.2
2019-01-11T11:35:53.055Z,31.9
2019-01-11T11:36:43.185Z,35.2
2019-01-11T11:37:33.160Z,37
2019-01-11T11:38:23.747Z,38.1
2019-01-11T11:39:13.552Z,37.8
2019-01-11T11:40:02.355Z,37.1
2019-01-11T11:40:52.870Z,36.6
2019-01-11T11:41:43.247Z,36.2
2019-01-11T11:42:32.751Z,35.9
2019-01-11T11:43:23.832Z,35.3
2019-01-11T11:44:13.322Z,34
2019-01-11T11:45:04.009Z,32.6
2019-01-11T11:45:53.777Z,32.9
2019-01-11T11:46:43.299Z,36
2019-01-11T11:47:33.429Z,37.6
2019-01-11T11:48:24.197Z,38.5
2019-01-11T11:49:14.464Z,37.8
2019-01-11T11:50:04.289Z,37.1
2019-01-11T11:50:54.562Z,36.6
2019-01-11T11:51:49.054Z,36.2
2019-01-11T11:52:34.491Z,35.4
2019-01-11T11:53:25.816Z,34.3
2019-01-11T11:54:14.242Z,32.8
2019-01-11T11:55:04.081Z,31.6
2019-01-11T11:55:54.118Z,30.6
2019-01-11T11:56:45.764Z,29.8
2019-01-11T11:57:36.063Z,29.1
2019-01-11T11:58:25.116Z,32.2
2019-01-11T11:59:14.889Z,35.3
2019-01-11T12:00:04.378Z,37
2019-01-11T12:00:55.298Z,38
2019-01-11T12:01:53.630Z,37.5
2019-01-11T12:02:35.948Z,36.8
2019-01-11T12:03:25.408Z,36.4
2019-01-11T12:04:15.151Z,36.1
2019-01-11T12:05:04.970Z,35.8
2019-01-11T12:05:55.610Z,35
2019-01-11T12:06:45.101Z,33.7
2019-01-11T12:07:35.672Z,32.3
2019-01-11T12:08:26.008Z,33.6
2019-01-11T12:09:15.785Z,36.4
2019-01-11T12:10:06.136Z,37.8
2019-01-11T12:10:56.500Z,38.6
2019-01-11T12:11:45.958Z,37.9
2019-01-11T12:12:37.751Z,37.1
2019-01-11T12:13:26.110Z,36.6
2019-01-11T12:14:16.390Z,36.2
2019-01-11T12:15:05.930Z,35.7
2019-01-11T12:15:55.659Z,34.6
2019-01-11T12:16:46.561Z,33.2
2019-01-11T12:17:37.521Z,31.8
2019-01-11T12:18:26.732Z,30.8
2019-01-11T12:19:16.555Z,29.9
2019-01-11T12:20:06.879Z,31.4
2019-01-11T12:20:55.757Z,34.9
2019-01-11T12:21:52.852Z,36.7
2019-01-11T12:22:36.677Z,38.1
2019-01-11T12:23:27.314Z,37.6
2019-01-11T12:24:17.407Z,36.9
2019-01-11T12:25:06.630Z,36.4
2019-01-11T12:25:56.339Z,36.1
2019-01-11T12:26:46.534Z,35.7
2019-01-11T12:27:36.271Z,34.8
2019-01-11T12:28:26.062Z,33.4
2019-01-11T12:29:16.678Z,32.1
2019-01-11T12:30:06.754Z,31.1
2019-01-11T12:30:56.224Z,34.5
2019-01-11T12:31:46.249Z,36.8
2019-01-11T12:32:37.104Z,37.9
2019-01-11T12:33:26.199Z,38.1
2019-01-11T12:34:16.778Z,37.3
2019-01-11T12:35:06.577Z,36.8
2019-01-11T12:35:57.218Z,36.3
2019-01-11T12:36:47.174Z,36
2019-01-11T12:37:36.464Z,35.2
2019-01-11T12:38:26.841Z,33.9
2019-01-11T12:39:17.894Z,32.4
2019-01-11T12:40:07.912Z,31.2
2019-01-11T12:40:57.630Z,33.1
2019-01-11T12:41:48.305Z,36
2019-01-11T12:42:37.190Z,37.5
2019-01-11T12:43:28.132Z,38.4
2019-01-11T12:44:18.449Z,37.6
2019-01-11T12:45:07.677Z,36.9
2019-01-11T12:45:58.787Z,36.4
2019-01-11T12:46:47.748Z,36.1
2019-01-11T12:47:38.651Z,35.6
2019-01-11T12:48:27.886Z,34.4
2019-01-11T12:49:18.264Z,33
2019-01-11T12:50:08.554Z,31.7
2019-01-11T12:50:58.310Z,30.6
2019-01-11T12:51:54.649Z,33.7
2019-01-11T12:52:39.048Z,36.5
2019-01-11T12:53:29.075Z,37.8
2019-01-11T12:54:18.509Z,38.5
2019-01-11T12:55:08.955Z,37.6
2019-01-11T12:55:58.985Z,36.9
2019-01-11T12:56:49.292Z,36.5
2019-01-11T12:57:39.114Z,36.1
2019-01-11T12:58:29.081Z,35.6
2019-01-11T12:59:18.825Z,34.5
2019-01-11T13:00:08.957Z,33.1
2019-01-11T13:00:59.265Z,31.8
2019-01-11T13:01:48.855Z,30.9
2019-01-11T13:02:39.242Z,34.4
2019-01-11T13:03:29.770Z,36.7
2019-01-11T13:04:19.273Z,37.9
2019-01-11T13:05:08.283Z,38.1
2019-01-11T13:06:00.418Z,37.3
2019-01-11T13:06:50.134Z,36.7
2019-01-11T13:07:39.205Z,36.3
2019-01-11T13:08:29.292Z,35.9
2019-01-11T13:09:19.835Z,35.1
2019-01-11T13:10:09.504Z,33.7
2019-01-11T13:10:59.167Z,32.3
2019-01-11T13:11:50.329Z,31.1
2019-01-11T13:12:40.206Z,30.2
2019-01-11T13:13:29.627Z,29.4
2019-01-11T13:14:19.682Z,28.9
2019-01-11T13:15:10.256Z,28.5
2019-01-11T13:16:00.364Z,28.2
2019-01-11T13:16:49.926Z,27.9
2019-01-11T13:17:39.188Z,27.8
2019-01-11T13:18:28.926Z,27.6
2019-01-11T13:19:19.569Z,27.4
2019-01-11T13:20:09.336Z,27.3
2019-01-11T13:20:59.976Z,27.2
2019-01-11T13:21:50.014Z,27.1
2019-01-11T13:22:41.058Z,27
2019-01-11T13:23:30.903Z,26.9
2019-01-11T13:24:20.345Z,26.9
2019-01-11T13:25:11.033Z,26.8
2019-01-11T13:26:01.028Z,26.8
2019-01-11T13:26:51.398Z,26.7
2019-01-11T13:27:40.820Z,26.6
2019-01-11T13:28:29.790Z,26.6
2019-01-11T13:29:20.246Z,26.6
2019-01-11T13:30:11.153Z,26.6
2019-01-11T13:31:01.098Z,26.5
2019-01-11T13:31:50.640Z,26.4
2019-01-11T13:32:40.768Z,26.4
2019-01-11T13:33:31.053Z,26.4
2019-01-11T13:34:20.851Z,26.3
2019-01-11T13:35:10.853Z,26.3
2019-01-11T13:36:00.650Z,26.3
2019-01-11T13:36:58.795Z,26.3
2019-01-11T13:37:42.292Z,26.2
2019-01-11T13:38:31.796Z,26.2
2019-01-11T13:39:22.419Z,26.2
2019-01-11T13:40:11.605Z,26.1
2019-01-11T13:41:02.230Z,26.1
2019-01-11T13:41:52.824Z,26.1
2019-01-11T13:42:42.899Z,26
2019-01-11T13:43:32.212Z,26
2019-01-11T13:44:21.412Z,26
2019-01-11T13:45:12.359Z,26
2019-01-11T13:46:01.995Z,25.9
2019-01-11T13:46:52.652Z,25.9
2019-01-11T13:47:41.667Z,25.9
2019-01-11T13:48:31.172Z,25.9
2019-01-11T13:49:22.062Z,25.8
2019-01-11T13:50:11.864Z,25.8
2019-01-11T13:51:04.124Z,25.8
2019-01-11T13:51:52.205Z,25.8
2019-01-11T13:52:42.826Z,25.8
2019-01-11T13:53:32.330Z,25.8
2019-01-11T13:54:21.879Z,25.7
2019-01-11T13:55:12.646Z,25.6
2019-01-11T13:56:02.211Z,25.6
2019-01-11T13:56:52.511Z,25.6
2019-01-11T13:57:43.637Z,25.6
2019-01-11T13:58:33.231Z,25.6
2019-01-11T13:59:22.726Z,25.5
2019-01-11T14:16:55.554Z,25
2019-01-11T14:17:45.363Z,25
2019-01-11T14:18:34.855Z,24.9
2019-01-11T14:19:26.118Z,24.9
2019-01-11T14:20:14.435Z,24.9
2019-01-11T14:21:05.593Z,24.9
2019-01-11T14:21:55.468Z,24.9
2019-01-11T14:22:46.284Z,24.9
2019-01-11T14:23:34.708Z,24.9
2019-01-11T14:24:25.042Z,24.8
2019-01-11T14:25:17.084Z,24.8
2019-01-11T14:26:05.985Z,24.8
2019-01-11T14:26:56.277Z,24.8
2019-01-11T14:27:45.840Z,24.8
2019-01-11T14:28:35.047Z,24.8
2019-01-11T14:29:25.957Z,24.8
2019-01-11T14:30:15.777Z,24.7
2019-01-11T14:31:05.249Z,24.7
2019-01-11T14:31:55.334Z,24.6
2019-01-11T14:32:46.175Z,24.6
2019-01-11T14:33:36.420Z,24.6
2019-01-11T14:34:26.555Z,24.6
2019-01-11T14:35:15.994Z,24.5
2019-01-11T14:36:05.727Z,24.5
2019-01-11T14:36:57.497Z,24.5
2019-01-11T14:37:46.154Z,24.5
2019-01-11T14:38:35.968Z,24.4
2019-01-11T14:39:26.378Z,24.4
2019-01-11T14:40:15.607Z,24.4
2019-01-11T14:41:06.099Z,24.4
2019-01-11T14:41:57.096Z,24.4
2019-01-11T14:42:46.129Z,24.4
2019-01-11T14:43:37.106Z,24.3
2019-01-11T14:44:26.359Z,24.3
2019-01-11T14:45:16.381Z,24.3
2019-01-11T14:46:07.596Z,24.3
2019-01-11T14:46:57.321Z,24.3
2019-01-11T14:47:47.464Z,24.3
2019-01-11T14:48:36.898Z,24.2
2019-01-11T14:49:28.025Z,24.2
2019-01-11T14:50:16.763Z,24.2
2019-01-11T14:51:07.386Z,24.2
2019-01-11T14:51:57.413Z,24.1
2019-01-11T14:52:47.770Z,24.1
2019-01-11T14:53:37.581Z,24.1
2019-01-11T14:54:27.575Z,24.1
2019-01-11T14:55:17.341Z,24.1
2019-01-11T14:56:07.659Z,24.1
2019-01-11T14:56:57.513Z,24.1
2019-01-11T14:57:47.635Z,24.5
2019-01-11T14:58:37.901Z,23.9
2019-01-11T14:59:27.890Z,23.3
2019-01-11T15:00:18.096Z,23
2019-01-11T15:01:08.183Z,22.8
2019-01-11T15:01:58.685Z,22.7
2019-01-11T15:02:47.875Z,22.6
2019-01-11T15:03:37.655Z,25
2019-01-11T15:04:28.248Z,29.3
2019-01-11T15:05:17.918Z,30.4
2019-01-11T15:06:07.844Z,31.1
2019-01-11T15:06:57.719Z,31.8
2019-01-11T15:07:48.167Z,32.5
2019-01-11T15:08:39.282Z,33.1
2019-01-11T15:09:28.102Z,33.6
2019-01-11T15:10:17.721Z,33.6
2019-01-11T15:11:07.932Z,33.8
2019-01-11T15:11:58.022Z,33.8
2019-01-11T15:12:48.102Z,33.8
2019-01-11T15:13:38.379Z,33.9
2019-01-11T15:14:28.141Z,34.4
2019-01-11T15:15:18.196Z,34.9
2019-01-11T15:16:07.966Z,35.3
2019-01-11T15:16:58.581Z,37
2019-01-11T15:17:49.534Z,36.2
2019-01-11T15:18:38.646Z,34.7
2019-01-11T15:19:28.737Z,33.9
2019-01-11T15:20:19.311Z,33.8
2019-01-11T15:21:08.889Z,34.3
2019-01-11T15:21:59.151Z,34.6
2019-01-11T15:22:49.224Z,35
2019-01-11T15:23:40.123Z,35.3
2019-01-11T15:24:29.573Z,35.5
2019-01-11T15:25:19.658Z,35.6
2019-01-11T15:26:09.433Z,35.8
2019-01-11T15:27:00.043Z,35.8
2019-01-11T15:27:49.813Z,35.9
2019-01-11T15:28:39.946Z,35.8
2019-01-11T15:29:29.980Z,35.8
2019-01-11T15:30:19.950Z,35.8
2019-01-11T15:31:10.338Z,35.7
2019-01-11T15:32:00.626Z,35.7
2019-01-11T15:32:49.400Z,35.6
2019-01-11T15:33:39.966Z,35.5
2019-01-11T15:34:30.841Z,35.4
2019-01-11T15:35:19.739Z,35.3
2019-01-11T15:36:10.623Z,35.2
2019-01-11T15:37:00.390Z,35.1
2019-01-11T15:37:51.065Z,35
2019-01-11T15:38:40.593Z,34.9
2019-01-11T15:39:30.075Z,34.8
2019-01-11T15:40:20.647Z,34.8
2019-01-11T15:41:11.282Z,34.6
2019-01-11T15:42:01.312Z,34.6
2019-01-11T15:42:51.085Z,34.6
2019-01-11T15:43:40.682Z,34.5
2019-01-11T15:44:29.830Z,34.6
2019-01-11T15:45:20.133Z,34.8
2019-01-11T15:46:17.415Z,35
2019-01-11T15:47:01.627Z,35.3
2019-01-11T15:47:51.709Z,35.4
2019-01-11T15:48:41.459Z,36.3
2019-01-11T15:49:32.132Z,36.6
2019-01-11T15:50:21.862Z,35.1
2019-01-11T15:51:11.642Z,34.1
2019-01-11T15:52:01.685Z,33.9
2019-01-11T15:52:51.489Z,34.5
2019-01-11T15:53:42.007Z,35.1
2019-01-11T15:54:31.345Z,35.3
2019-01-11T15:55:21.404Z,35.6
2019-01-11T15:56:11.172Z,35.7
2019-01-11T15:57:02.059Z,35.9
2019-01-11T15:57:53.084Z,36
2019-01-11T15:58:41.862Z,37.3
2019-01-11T15:59:31.956Z,37.8
2019-01-11T16:00:21.950Z,36.7
2019-01-11T16:01:12.064Z,36
2019-01-11T16:02:02.356Z,36.1
2019-01-11T16:02:51.299Z,36.3
2019-01-11T16:03:41.923Z,36.2
2019-01-11T16:04:32.249Z,36.4
2019-01-11T16:05:22.088Z,36.6
2019-01-11T16:06:12.647Z,37.8
2019-01-11T16:07:02.143Z,38.6
2019-01-11T16:07:53.959Z,37.8